Abbott, Mississippi
Current Conditions -  °F | °C
As of 6:13 AM on Monday 20 Oct 2014 (Local Time) from KCBM Reporting Station
Haze Haze  
Wind Chill: 43°   Ceiling: Unl
Heat Index: 43°   Visibility: 4mi
Dew Point: 43°   Wind: 0mph
Humidity: 100%   Direction: NA
Pressure: 30.09"   Gusts: NA
Location:  33.6681°N, 88.7618°W
Report Text: KCBM 201113Z AUTO 00000KT 4SM BR CLR 06/06 A3009 RMK AO2 VIS 1/4 RWY13C $
Loading
Personal Weather Stations






























Interactive Weather Map
Tropical Storm Tracking
New forecast layout! Learn more

10-Day Weather Forecast

Advertisements
Track Severe Weather on mobile